Time;durP1;ratioP1;P1;durP2;ratioP2;P2;SDS_P1;SDS_P2;PMS_P1;PMS_P2;Temp;Humidity;BMP_temperature;BMP_pressure;BME280_temperature;BME280_humidity;BME280_pressure;Samples;Min_cycle;Max_cycle;Signal;HPM_P1;HPM_P2
2024/03/08 00:02:21;;;;;;;27.07;18.80;;;;;;;5.30;100.00;101684.50;5259621;28;20296;-75
2024/03/08 00:04:53;;;;;;;26.40;18.17;;;;;;;5.22;100.00;101663.25;5272016;28;20051;-75
2024/03/08 00:07:27;;;;;;;26.90;19.20;;;;;;;5.24;100.00;101677.88;5282836;28;20552;-75
2024/03/08 00:09:59;;;;;;;24.17;17.45;;;;;;;5.13;100.00;101655.00;5281240;28;20039;-75
2024/03/08 00:12:31;;;;;;;27.50;18.75;;;;;;;5.16;100.00;101661.81;5279880;28;20032;-75
2024/03/08 00:15:04;;;;;;;28.20;19.05;;;;;;;5.18;100.00;101659.13;5279351;28;20035;-75
2024/03/08 00:17:36;;;;;;;28.00;20.30;;;;;;;5.11;100.00;101663.78;5280954;28;20367;-75
2024/03/08 00:20:11;;;;;;;28.95;19.77;;;;;;;5.09;100.00;101661.25;5283001;28;20170;-75
2024/03/08 00:22:43;;;;;;;28.02;19.50;;;;;;;5.06;100.00;101663.16;5279904;28;20032;-75
2024/03/08 00:25:16;;;;;;;25.83;19.40;;;;;;;4.96;100.00;101647.19;5281783;28;20032;-75
2024/03/08 00:27:49;;;;;;;25.83;19.67;;;;;;;5.02;100.00;101659.03;5279858;28;20422;-75
2024/03/08 00:30:22;;;;;;;25.67;18.63;;;;;;;4.99;100.00;101662.63;5282229;28;20036;-74
2024/03/08 00:32:54;;;;;;;23.38;17.63;;;;;;;5.28;100.00;101662.97;5283604;28;20028;-75
2024/03/08 00:35:26;;;;;;;26.75;19.52;;;;;;;5.39;100.00;101655.47;5281353;28;20195;-74
2024/03/08 00:37:58;;;;;;;22.85;17.65;;;;;;;5.42;100.00;101650.13;5281164;28;20032;-75
2024/03/08 00:40:30;;;;;;;24.85;18.63;;;;;;;5.42;100.00;101647.53;5282563;28;20023;-74
2024/03/08 00:43:03;;;;;;;23.42;18.30;;;;;;;5.33;100.00;101633.22;5280202;28;20051;-75
2024/03/08 00:45:36;;;;;;;29.02;18.95;;;;;;;5.38;100.00;101646.00;5281590;28;20031;-75
2024/03/08 00:48:09;;;;;;;26.27;19.02;;;;;;;5.39;100.00;101642.50;5280831;28;20028;-74
2024/03/08 00:50:41;;;;;;;25.27;17.70;;;;;;;5.36;100.00;101645.22;5281999;28;20210;-74
2024/03/08 00:53:13;;;;;;;25.58;18.23;;;;;;;5.31;100.00;101645.47;5282298;28;20040;-75
2024/03/08 00:55:46;;;;;;;26.63;17.10;;;;;;;5.32;100.00;101630.72;5281584;28;20489;-75
2024/03/08 00:58:18;;;;;;;22.05;16.98;;;;;;;5.32;100.00;101635.91;5281632;28;20421;-75
2024/03/08 01:00:50;;;;;;;21.23;17.40;;;;;;;5.26;100.00;101631.00;5280153;28;20032;-75
2024/03/08 01:03:22;;;;;;;25.67;18.52;;;;;;;5.26;100.00;101625.81;5281995;28;20032;-75
2024/03/08 01:05:53;;;;;;;26.23;18.05;;;;;;;5.26;100.00;101626.66;5280295;28;20051;-75
2024/03/08 01:08:25;;;;;;;24.58;17.65;;;;;;;5.21;100.00;101623.47;5264985;28;20032;-75
2024/03/08 01:10:57;;;;;;;23.30;18.13;;;;;;;5.22;100.00;101619.94;5283279;28;20027;-74
2024/03/08 01:13:29;;;;;;;21.40;17.02;;;;;;;5.21;100.00;101618.25;5283897;28;20036;-75
2024/03/08 01:16:01;;;;;;;22.02;17.13;;;;;;;5.22;100.00;101619.09;5285461;28;20028;-74
2024/03/08 01:18:33;;;;;;;25.90;17.65;;;;;;;5.17;100.00;101621.94;5285699;28;20043;-75
2024/03/08 01:21:05;;;;;;;23.98;17.30;;;;;;;5.20;100.00;101607.97;5282673;28;20426;-75
2024/03/08 01:23:37;;;;;;;23.45;17.23;;;;;;;5.15;100.00;101599.53;5284714;28;20675;-74
2024/03/08 01:26:09;;;;;;;22.27;16.33;;;;;;;5.17;100.00;101608.09;5284679;28;20035;-74
2024/03/08 01:28:41;;;;;;;24.40;16.63;;;;;;;5.11;100.00;101604.91;5283135;28;20028;-75
2024/03/08 01:31:13;;;;;;;23.45;16.67;;;;;;;5.11;100.00;101601.44;5286310;28;20023;-74
2024/03/08 01:33:45;;;;;;;22.67;16.15;;;;;;;5.10;100.00;101599.78;5282302;28;20459;-74
2024/03/08 01:36:19;;;;;;;29.00;17.40;;;;;;;5.05;100.00;101594.81;5283203;28;20033;-75
2024/03/08 01:38:52;;;;;;;23.92;17.27;;;;;;;4.96;100.00;101591.81;5282610;28;20032;-75
2024/03/08 01:41:23;;;;;;;24.80;16.38;;;;;;;5.03;100.00;101594.03;5287541;28;20368;-74
2024/03/08 01:43:55;;;;;;;21.67;16.35;;;;;;;4.92;100.00;101591.13;5287642;28;20035;-74
2024/03/08 01:46:29;;;;;;;23.25;17.35;;;;;;;4.94;100.00;101591.91;5281015;28;20040;-74
2024/03/08 01:49:01;;;;;;;24.80;18.60;;;;;;;4.93;100.00;101585.03;5285627;28;20428;-74
2024/03/08 01:51:32;;;;;;;21.52;16.70;;;;;;;4.89;100.00;101575.72;5281697;28;20042;-74
2024/03/08 01:54:05;;;;;;;23.35;16.90;;;;;;;4.85;100.00;101579.38;5284385;28;20067;-74
2024/03/08 01:56:38;;;;;;;22.98;17.30;;;;;;;4.90;100.00;101580.00;5281942;28;20036;-74
2024/03/08 01:59:10;;;;;;;20.48;15.95;;;;;;;4.86;100.00;101575.88;5281124;28;20048;-74
2024/03/08 02:01:43;;;;;;;20.75;16.50;;;;;;;4.84;100.00;101572.50;5284704;28;20039;-74
2024/03/08 02:04:16;;;;;;;22.07;17.10;;;;;;;4.84;100.00;101573.31;5284412;28;20493;-75
2024/03/08 02:06:48;;;;;;;23.27;16.77;;;;;;;4.83;100.00;101570.81;5283370;28;20035;-74
2024/03/08 02:09:20;;;;;;;24.10;16.83;;;;;;;4.77;100.00;101571.09;5282929;28;20127;-74
2024/03/08 02:11:54;;;;;;;19.40;15.90;;;;;;;4.75;100.00;101562.56;5282826;28;20036;-74
2024/03/08 02:14:26;;;;;;;21.92;16.63;;;;;;;4.71;100.00;101567.06;5287804;28;20032;-74
2024/03/08 02:17:01;;;;;;;21.02;17.50;;;;;;;4.79;100.00;101564.94;5285897;28;20516;-74
2024/03/08 02:19:35;;;;;;;21.60;15.98;;;;;;;4.62;100.00;101550.19;5283198;28;20087;-74
2024/03/08 02:22:07;;;;;;;21.80;15.93;;;;;;;4.66;100.00;101556.09;5283182;28;20028;-74
2024/03/08 02:24:39;;;;;;;21.27;16.42;;;;;;;4.62;100.00;101555.38;5286311;28;20071;-74
2024/03/08 02:27:11;;;;;;;22.20;17.02;;;;;;;4.63;100.00;101554.47;5285472;28;20119;-74
2024/03/08 02:29:44;;;;;;;21.70;16.83;;;;;;;4.61;100.00;101548.50;5286219;28;20050;-74
2024/03/08 02:32:16;;;;;;;21.40;16.67;;;;;;;4.60;100.00;101548.59;5284218;28;20032;-74
2024/03/08 02:34:48;;;;;;;21.75;16.45;;;;;;;4.55;100.00;101545.38;5285811;28;20047;-74
2024/03/08 02:37:20;;;;;;;21.00;16.70;;;;;;;4.51;100.00;101533.44;5287755;28;20032;-74
2024/03/08 02:39:52;;;;;;;20.60;16.48;;;;;;;4.49;100.00;101537.88;5283462;28;20039;-74
2024/03/08 02:42:23;;;;;;;23.73;16.70;;;;;;;4.38;100.00;101517.63;5279490;28;20032;-74
2024/03/08 02:44:55;;;;;;;24.08;18.30;;;;;;;4.40;100.00;101528.78;5273517;28;20398;-74
2024/03/08 02:47:30;;;;;;;22.27;17.00;;;;;;;4.38;100.00;101531.44;5252884;28;20037;-74
2024/03/08 02:50:03;;;;;;;20.92;17.05;;;;;;;4.35;100.00;101525.56;5282712;28;20036;-74
2024/03/08 02:52:35;;;;;;;23.63;17.57;;;;;;;4.37;100.00;101521.16;5284442;28;20325;-75
2024/03/08 02:55:10;;;;;;;23.77;17.80;;;;;;;4.39;100.00;101509.81;5284177;28;20500;-75
2024/03/08 02:57:43;;;;;;;20.25;16.92;;;;;;;4.25;100.00;101506.19;5284637;28;20032;-75
2024/03/08 03:00:15;;;;;;;20.17;16.92;;;;;;;4.27;100.00;101506.94;5280077;28;20028;-75
2024/03/08 03:02:47;;;;;;;22.45;17.10;;;;;;;4.28;100.00;101508.59;5281460;28;20310;-75
2024/03/08 03:05:22;;;;;;;23.52;16.27;;;;;;;4.23;100.00;101500.22;5259568;28;20394;-75
2024/03/08 03:07:54;;;;;;;21.40;16.95;;;;;;;4.20;100.00;101498.59;5264076;28;20513;-75
2024/03/08 03:10:26;;;;;;;21.40;17.30;;;;;;;4.09;100.00;101477.53;5262796;28;20043;-75
2024/03/08 03:12:58;;;;;;;22.58;17.08;;;;;;;4.18;100.00;101495.25;5261240;28;20032;-75
2024/03/08 03:15:30;;;;;;;20.23;17.00;;;;;;;4.17;100.00;101491.00;5261107;28;20043;-75
2024/03/08 03:18:02;;;;;;;20.17;16.80;;;;;;;4.14;100.00;101491.97;5277467;28;20231;-75
2024/03/08 03:20:39;;;;;;;23.05;17.75;;;;;;;4.14;100.00;101480.75;5282861;28;20040;-75
2024/03/08 03:23:14;;;;;;;23.05;17.50;;;;;;;4.14;100.00;101483.34;5279933;28;20046;-75
2024/03/08 03:25:46;;;;;;;20.13;17.50;;;;;;;4.12;100.00;101482.56;5282078;28;20028;-75
2024/03/08 03:28:21;;;;;;;21.73;17.92;;;;;;;4.15;100.00;101480.66;5279781;28;20044;-75
2024/03/08 03:30:53;;;;;;;21.13;17.33;;;;;;;4.12;100.00;101477.38;5281251;28;20024;-75
2024/03/08 03:33:25;;;;;;;23.52;18.23;;;;;;;4.10;100.00;101474.88;5278714;28;20054;-75
2024/03/08 03:35:57;;;;;;;21.25;17.55;;;;;;;4.07;100.00;101481.94;5283212;28;20055;-75
2024/03/08 03:38:29;;;;;;;20.50;17.17;;;;;;;4.03;100.00;101478.66;5282756;28;20028;-75
2024/03/08 03:41:09;;;;;;;22.98;17.80;;;;;;;4.04;100.00;101480.34;5282807;28;20043;-75
2024/03/08 03:43:42;;;;;;;19.33;17.23;;;;;;;4.00;100.00;101472.78;5281019;28;20254;-75
2024/03/08 03:46:14;;;;;;;23.70;17.83;;;;;;;4.04;100.00;101472.56;5279843;28;20043;-75
2024/03/08 03:48:46;;;;;;;21.98;17.95;;;;;;;3.97;100.00;101473.75;5281170;28;20632;-75
2024/03/08 03:51:19;;;;;;;25.10;18.40;;;;;;;4.01;100.00;101475.28;5282551;28;20044;-75
2024/03/08 03:53:50;;;;;;;20.30;17.70;;;;;;;4.03;100.00;101459.69;5279514;28;20055;-75
2024/03/08 03:56:26;;;;;;;21.70;18.13;;;;;;;4.08;100.00;101460.28;5281757;28;20031;-74
2024/03/08 03:58:58;;;;;;;21.40;17.90;;;;;;;3.96;100.00;101461.72;5281681;28;20032;-75
2024/03/08 04:01:33;;;;;;;21.80;17.05;;;;;;;3.95;100.00;101456.63;5281693;28;20097;-74
2024/03/08 04:04:05;;;;;;;22.45;18.00;;;;;;;3.95;100.00;101457.44;5281421;28;20596;-75
2024/03/08 04:06:36;;;;;;;23.63;18.00;;;;;;;3.97;100.00;101455.63;5283832;28;20043;-75
2024/03/08 04:09:09;;;;;;;24.23;17.98;;;;;;;3.94;100.00;101450.59;5281899;28;20030;-75
2024/03/08 04:11:41;;;;;;;24.33;18.05;;;;;;;3.96;100.00;101446.16;5282273;28;20036;-75
2024/03/08 04:14:13;;;;;;;23.05;18.20;;;;;;;3.96;100.00;101450.50;5283110;28;20032;-75
2024/03/08 04:16:45;;;;;;;23.13;18.25;;;;;;;3.82;100.00;101435.59;5277736;28;20481;-76
2024/03/08 04:19:17;;;;;;;20.52;17.92;;;;;;;3.87;100.00;101444.84;5280180;28;20462;-75
2024/03/08 04:21:49;;;;;;;22.20;17.52;;;;;;;3.88;100.00;101443.09;5283004;28;20036;-75
2024/03/08 04:24:21;;;;;;;22.83;18.75;;;;;;;3.85;100.00;101430.28;5283956;28;20032;-75
2024/03/08 04:26:53;;;;;;;23.10;18.73;;;;;;;3.87;100.00;101438.84;5279222;28;20047;-75
2024/03/08 04:29:25;;;;;;;22.83;18.15;;;;;;;3.87;100.00;101433.66;5280119;28;20478;-76
2024/03/08 04:31:56;;;;;;;23.83;18.50;;;;;;;3.85;100.00;101432.88;5280572;28;20032;-75
2024/03/08 04:34:28;;;;;;;24.15;18.58;;;;;;;3.83;100.00;101434.72;5285349;28;20032;-75
2024/03/08 04:37:02;;;;;;;21.90;17.55;;;;;;;3.77;100.00;101427.22;5281977;28;20616;-75
2024/03/08 04:39:33;;;;;;;23.10;17.95;;;;;;;3.88;100.00;101428.38;5280468;28;20040;-74
2024/03/08 04:42:10;;;;;;;23.48;18.05;;;;;;;3.81;100.00;101429.56;5286445;28;20591;-74
2024/03/08 04:44:42;;;;;;;23.08;18.30;;;;;;;3.79;100.00;101430.56;5284424;28;20036;-76
2024/03/08 04:47:14;;;;;;;22.02;17.25;;;;;;;3.80;100.00;101422.72;5281197;28;20063;-75
2024/03/08 04:49:47;;;;;;;20.98;17.83;;;;;;;3.85;100.00;101430.28;5286053;28;20023;-75
2024/03/08 04:52:19;;;;;;;21.35;18.45;;;;;;;3.78;100.00;101426.28;5281731;28;20028;-74
2024/03/08 04:54:51;;;;;;;21.85;18.58;;;;;;;3.78;100.00;101421.09;5286303;28;20094;-74
2024/03/08 04:57:23;;;;;;;22.60;18.27;;;;;;;3.73;100.00;101415.31;5281477;28;20527;-75
2024/03/08 04:59:55;;;;;;;22.95;18.52;;;;;;;3.75;100.00;101416.94;5282591;28;20031;-74
2024/03/08 05:02:27;;;;;;;23.33;18.90;;;;;;;3.73;100.00;101416.16;5284820;28;20047;-75
2024/03/08 05:04:59;;;;;;;25.25;18.60;;;;;;;3.64;100.00;101407.06;5286472;28;20040;-73
2024/03/08 05:07:31;;;;;;;22.80;18.05;;;;;;;3.65;100.00;101416.50;5285690;28;20516;-75
2024/03/08 05:10:03;;;;;;;23.77;18.75;;;;;;;3.63;100.00;101405.34;5276669;28;20028;-75
2024/03/08 05:12:35;;;;;;;25.20;19.23;;;;;;;3.64;100.00;101406.22;5285275;28;20032;-73
2024/03/08 05:15:07;;;;;;;22.33;19.05;;;;;;;3.62;100.00;101403.69;5285039;28;20024;-75
2024/03/08 05:17:40;;;;;;;24.95;19.70;;;;;;;3.66;100.00;101409.56;5259284;28;20067;-76
2024/03/08 05:20:13;;;;;;;25.50;20.42;;;;;;;3.66;100.00;101400.03;5279920;28;20470;-76
2024/03/08 05:22:46;;;;;;;26.15;20.85;;;;;;;3.66;100.00;101396.63;5284227;28;20055;-75
2024/03/08 05:25:18;;;;;;;24.52;19.38;;;;;;;3.64;100.00;101393.28;5285000;28;20389;-75
2024/03/08 05:27:50;;;;;;;22.90;19.08;;;;;;;3.58;100.00;101399.56;5284544;28;20038;-74
2024/03/08 05:30:21;;;;;;;23.05;19.17;;;;;;;3.50;100.00;101391.31;5283065;28;20033;-75
2024/03/08 05:32:53;;;;;;;23.20;18.88;;;;;;;3.55;100.00;101389.34;5281732;28;20023;-77
2024/03/08 05:35:25;;;;;;;25.27;19.05;;;;;;;3.57;100.00;101400.47;5283381;28;20608;-75
2024/03/08 05:37:57;;;;;;;23.90;19.83;;;;;;;3.50;100.00;101401.69;5281627;28;20138;-74
2024/03/08 05:40:31;;;;;;;24.52;19.48;;;;;;;3.54;100.00;101397.19;5281141;28;20414;-76
2024/03/08 05:43:03;;;;;;;22.13;19.38;;;;;;;3.49;100.00;101396.56;5280008;28;20031;-75
2024/03/08 05:45:35;;;;;;;26.60;21.00;;;;;;;3.52;100.00;101386.88;5280579;28;20531;-77
2024/03/08 05:48:07;;;;;;;25.00;20.33;;;;;;;3.47;100.00;101391.44;5283533;28;20040;-74
2024/03/08 05:50:39;;;;;;;25.02;20.70;;;;;;;3.44;100.00;101391.59;5283426;28;20024;-75
2024/03/08 05:53:11;;;;;;;25.25;20.20;;;;;;;3.42;100.00;101386.50;5282762;28;20446;-75
2024/03/08 05:55:43;;;;;;;27.92;21.10;;;;;;;3.45;100.00;101382.06;5284647;28;20051;-75
2024/03/08 05:58:15;;;;;;;24.00;20.38;;;;;;;3.39;100.00;101375.44;5283160;28;20024;-75
2024/03/08 06:00:47;;;;;;;25.38;20.40;;;;;;;3.40;100.00;101379.69;5283847;28;20039;-76
2024/03/08 06:03:21;;;;;;;27.58;19.45;;;;;;;3.37;100.00;101370.34;5285576;28;20060;-75
2024/03/08 06:05:53;;;;;;;27.45;20.88;;;;;;;3.38;100.00;101378.94;5283336;28;20040;-75
2024/03/08 06:08:29;;;;;;;26.30;21.67;;;;;;;3.36;100.00;101370.38;5282892;28;20051;-77
2024/03/08 06:11:02;;;;;;;27.60;20.50;;;;;;;3.38;100.00;101366.00;5279670;28;20031;-75
2024/03/08 06:13:34;;;;;;;23.23;19.75;;;;;;;3.36;100.00;101372.97;5282518;28;20347;-76
2024/03/08 06:16:08;;;;;;;27.80;20.25;;;;;;;3.36;100.00;101360.03;5283702;28;20398;-75
2024/03/08 06:18:41;;;;;;;25.35;21.20;;;;;;;3.38;100.00;101355.63;5280228;28;20063;-75
2024/03/08 06:21:12;;;;;;;23.63;20.17;;;;;;;3.39;100.00;101360.72;5279254;28;20035;-75
2024/03/08 06:23:44;;;;;;;27.80;20.35;;;;;;;3.36;100.00;101353.09;5276837;28;20036;-75
2024/03/08 06:26:16;;;;;;;25.15;20.50;;;;;;;3.35;100.00;101354.00;5282609;28;20405;-75
2024/03/08 06:28:48;;;;;;;23.52;19.35;;;;;;;3.38;100.00;101353.03;5278832;28;20035;-75
2024/03/08 06:31:21;;;;;;;24.55;20.50;;;;;;;3.38;100.00;101350.44;5282143;28;20434;-75
2024/03/08 06:33:56;;;;;;;28.27;20.45;;;;;;;3.41;100.00;101345.13;5283956;28;20032;-75
2024/03/08 06:36:28;;;;;;;27.05;20.98;;;;;;;3.44;100.00;101355.31;5281993;28;20355;-74
2024/03/08 06:38:59;;;;;;;26.75;20.75;;;;;;;3.45;100.00;101348.38;5279474;28;20096;-76
2024/03/08 06:41:31;;;;;;;26.88;20.98;;;;;;;3.48;100.00;101343.91;5284414;28;20047;-75
2024/03/08 06:44:03;;;;;;;25.65;20.48;;;;;;;3.53;100.00;101346.31;5277800;28;20040;-75
2024/03/08 06:46:36;;;;;;;27.30;20.58;;;;;;;3.50;100.00;101346.44;5280774;28;20401;-75
2024/03/08 06:49:09;;;;;;;26.08;20.38;;;;;;;3.53;100.00;101336.78;5279560;28;20028;-75
2024/03/08 06:51:41;;;;;;;24.35;20.45;;;;;;;3.57;100.00;101346.06;5284550;28;20039;-77
2024/03/08 06:54:13;;;;;;;25.90;21.27;;;;;;;3.63;100.00;101345.75;5284887;28;20051;-75
2024/03/08 06:56:45;;;;;;;25.63;19.40;;;;;;;3.65;100.00;101350.91;5282695;28;20397;-75
2024/03/08 06:59:17;;;;;;;28.23;21.73;;;;;;;3.69;100.00;101349.00;5283047;28;20038;-75
2024/03/08 07:01:50;;;;;;;27.67;22.13;;;;;;;3.73;100.00;101347.94;5282371;28;20386;-76
2024/03/08 07:04:26;;;;;;;24.33;21.00;;;;;;;3.75;100.00;101348.69;5273212;28;20496;-75
2024/03/08 07:06:58;;;;;;;25.15;20.55;;;;;;;3.72;100.00;101341.09;5284525;28;20036;-77
2024/03/08 07:09:30;;;;;;;25.52;20.58;;;;;;;3.75;100.00;101338.31;5283470;28;20027;-77
2024/03/08 07:12:02;;;;;;;25.00;20.25;;;;;;;3.81;100.00;101340.63;5271433;28;20484;-76
2024/03/08 07:14:40;;;;;;;26.80;21.55;;;;;;;3.86;100.00;101334.31;5276836;28;20027;-77
2024/03/08 07:17:12;;;;;;;24.95;19.65;;;;;;;3.86;100.00;101333.44;5282335;28;20029;-76
2024/03/08 07:19:45;;;;;;;25.70;19.60;;;;;;;3.88;100.00;101335.06;5279338;28;20024;-78
2024/03/08 07:22:17;;;;;;;25.87;21.23;;;;;;;3.99;99.49;101336.31;5281663;28;20028;-76
2024/03/08 07:25:19;;;;;;;26.70;20.58;;;;;;;4.02;99.20;101339.59;5278985;28;20028;-75
2024/03/08 07:27:54;;;;;;;25.70;20.33;;;;;;;4.18;98.93;101341.41;5267227;28;20032;-77
2024/03/08 07:33:16;;;;;;;25.42;20.98;;;;;;;4.21;99.26;101338.66;5281846;28;20032;-75
2024/03/08 07:35:50;;;;;;;26.45;20.60;;;;;;;4.23;97.02;101335.06;5278488;28;20075;-75
2024/03/08 07:38:22;;;;;;;24.63;19.55;;;;;;;4.30;98.07;101318.28;5280746;28;20027;-74
2024/03/08 07:40:54;;;;;;;23.98;19.27;;;;;;;4.33;96.09;101312.09;5265102;28;20032;-75
2024/03/08 07:43:26;;;;;;;26.17;21.02;;;;;;;4.47;97.27;101308.78;5275189;28;20385;-75
2024/03/08 07:45:58;;;;;;;22.92;19.80;;;;;;;4.34;95.80;101288.66;5279430;28;20040;-76
2024/03/08 07:48:30;;;;;;;25.63;20.08;;;;;;;4.56;95.60;101314.34;5279299;28;20043;-76
2024/03/08 07:51:05;;;;;;;23.77;19.37;;;;;;;4.69;97.20;101309.34;5277179;28;20020;-75
2024/03/08 07:53:37;;;;;;;25.35;20.35;;;;;;;4.68;95.10;101304.25;5267768;28;20217;-76
2024/03/08 07:56:13;;;;;;;25.05;19.77;;;;;;;4.92;94.25;101307.28;5275057;28;20025;-78
2024/03/08 07:58:45;;;;;;;23.83;19.52;;;;;;;4.78;94.66;101285.50;5277118;28;20385;-75
2024/03/08 08:01:17;;;;;;;25.70;18.90;;;;;;;4.87;93.77;101276.38;5275969;28;20032;-75
2024/03/08 08:03:49;;;;;;;24.10;19.33;;;;;;;5.03;94.06;101287.59;5273564;28;20031;-76
2024/03/08 08:06:21;;;;;;;23.05;19.15;;;;;;;5.03;91.26;101284.16;5277323;28;20728;-75
2024/03/08 08:08:53;;;;;;;24.25;19.38;;;;;;;5.10;91.54;101285.50;5280726;28;20028;-75
2024/03/08 08:11:28;;;;;;;25.73;18.83;;;;;;;5.28;93.28;101273.28;5276550;28;20229;-78
2024/03/08 08:14:00;;;;;;;24.58;18.98;;;;;;;5.26;90.45;101277.72;5276524;28;20040;-75
2024/03/08 08:16:32;;;;;;;25.05;18.48;;;;;;;5.20;89.71;101265.06;5285455;28;20365;-77
2024/03/08 08:19:07;;;;;;;23.55;17.77;;;;;;;5.44;90.22;101273.25;5283389;28;20032;-75
2024/03/08 08:21:39;;;;;;;24.55;19.38;;;;;;;5.45;92.24;101254.13;5282742;28;20298;-78
2024/03/08 08:24:11;;;;;;;22.73;18.33;;;;;;;5.58;89.47;101263.75;5281435;28;20063;-76
2024/03/08 08:26:44;;;;;;;23.02;18.77;;;;;;;5.58;91.54;101255.13;5281819;28;20520;-77
2024/03/08 08:29:16;;;;;;;22.90;18.43;;;;;;;5.69;88.49;101260.53;5279486;28;20031;-75
2024/03/08 08:31:49;;;;;;;24.55;18.92;;;;;;;5.73;87.69;101256.00;5281427;28;20071;-78
2024/03/08 08:34:23;;;;;;;23.13;18.25;;;;;;;5.76;87.78;101255.84;5283840;28;20287;-76
2024/03/08 08:36:55;;;;;;;21.58;18.10;;;;;;;5.78;87.79;101254.78;5282176;28;20036;-76
2024/03/08 08:39:27;;;;;;;21.92;18.15;;;;;;;5.84;87.80;101251.84;5277392;28;20039;-76
2024/03/08 08:41:59;;;;;;;22.30;17.83;;;;;;;5.93;87.04;101247.91;5282188;28;20024;-77
2024/03/08 08:44:31;;;;;;;21.83;17.83;;;;;;;5.99;87.09;101247.53;5281891;28;20483;-75
2024/03/08 08:47:03;;;;;;;23.90;17.90;;;;;;;6.06;85.86;101248.00;5280213;28;20032;-75
2024/03/08 08:49:35;;;;;;;24.27;17.80;;;;;;;6.18;85.45;101251.66;5283244;28;20039;-75
2024/03/08 08:52:08;;;;;;;23.35;18.55;;;;;;;6.22;84.36;101247.94;5284468;28;20028;-75
2024/03/08 08:54:40;;;;;;;21.25;18.80;;;;;;;6.30;83.68;101235.31;5284625;28;20596;-76
2024/03/08 08:57:13;;;;;;;25.00;19.42;;;;;;;6.41;82.83;101240.69;5282302;28;20389;-75
2024/03/08 08:59:45;;;;;;;20.83;17.10;;;;;;;6.54;83.15;101228.59;5283988;28;20025;-75
2024/03/08 09:02:20;;;;;;;23.15;17.52;;;;;;;6.65;83.64;101224.50;5284491;28;20221;-78
2024/03/08 09:04:52;;;;;;;23.35;18.77;;;;;;;6.79;82.37;101222.69;5287301;28;20048;-77
2024/03/08 09:07:24;;;;;;;22.00;17.75;;;;;;;6.68;79.24;101211.28;5286423;28;21188;-75
2024/03/08 09:09:58;;;;;;;23.88;17.58;;;;;;;6.75;78.32;101199.56;5284048;28;20028;-77
2024/03/08 09:12:31;;;;;;;;;;;;;;;7.31;78.35;101214.16;5284896;28;20043;-77
2024/03/08 09:15:04;;;;;;;22.00;18.17;;;;;;;7.08;77.54;101204.38;5285069;28;19916;-75
2024/03/08 09:17:41;;;;;;;23.88;18.77;;;;;;;7.19;75.79;101195.84;5283508;28;20277;-75
2024/03/08 09:20:15;;;;;;;24.63;18.50;;;;;;;7.32;75.61;101200.19;5280760;28;20048;-75
2024/03/08 09:22:49;;;;;;;23.00;17.17;;;;;;;7.43;76.13;101190.84;5281737;28;20024;-76
2024/03/08 09:25:22;;;;;;;19.75;16.27;;;;;;;7.52;77.58;101188.44;5284216;28;20451;-75
2024/03/08 09:27:54;;;;;;;21.85;18.30;;;;;;;7.66;74.07;101181.47;5279936;28;20043;-77
2024/03/08 09:30:26;;;;;;;21.52;16.60;;;;;;;7.62;74.12;101180.00;5281908;28;20035;-76
2024/03/08 09:32:58;;;;;;;21.77;17.23;;;;;;;7.67;73.86;101173.53;5278759;28;20405;-75
2024/03/08 09:35:30;;;;;;;22.67;16.95;;;;;;;7.68;73.08;101159.56;5280054;28;20043;-76
2024/03/08 09:38:03;;;;;;;21.85;17.10;;;;;;;7.84;71.59;101163.72;5279857;28;20036;-75
2024/03/08 09:40:36;;;;;;;19.63;16.42;;;;;;;7.97;70.50;101151.53;5281356;28;20042;-77
2024/03/08 09:43:11;;;;;;;19.52;16.45;;;;;;;8.02;71.16;101158.09;5282770;28;20036;-78
2024/03/08 09:45:46;;;;;;;20.38;16.02;;;;;;;8.18;67.86;101143.97;5273875;28;20536;-78
2024/03/08 09:48:20;;;;;;;21.70;15.48;;;;;;;8.20;68.68;101136.88;5280837;28;20047;-77
2024/03/08 09:50:52;;;;;;;25.45;16.08;;;;;;;8.18;69.48;101113.50;5272666;28;20040;-76
2024/03/08 09:53:25;;;;;;;18.38;15.18;;;;;;;8.51;66.62;101125.13;5279547;28;20047;-76
2024/03/08 09:55:56;;;;;;;19.50;15.45;;;;;;;8.60;66.28;101111.44;5281865;28;20047;-76
2024/03/08 10:01:04;;;;;;;17.95;15.18;;;;;;;8.63;63.99;101100.72;5283219;28;20040;-76
2024/03/08 10:03:36;;;;;;;17.52;14.50;;;;;;;8.79;63.28;101097.88;5285460;28;20582;-77
2024/03/08 10:06:10;;;;;;;18.60;15.32;;;;;;;8.76;62.79;101098.91;5277351;28;20036;-77
2024/03/08 10:08:42;;;;;;;18.40;15.18;;;;;;;8.92;62.31;101096.00;5277528;28;20039;-77
2024/03/08 10:11:14;;;;;;;17.08;13.80;;;;;;;9.00;63.31;101085.81;5278625;28;20029;-78
2024/03/08 10:13:48;;;;;;;20.90;15.32;;;;;;;9.11;62.54;101084.19;5277894;28;20500;-76
2024/03/08 10:16:21;;;;;;;17.08;13.68;;;;;;;9.19;61.96;101073.97;5277638;28;20934;-75
2024/03/08 10:18:53;;;;;;;17.20;14.25;;;;;;;9.27;61.83;101074.22;5272379;28;20486;-75
2024/03/08 10:21:25;;;;;;;19.23;15.55;;;;;;;9.31;59.17;101078.28;5280193;28;20035;-75
2024/03/08 10:23:58;;;;;;;20.20;14.93;;;;;;;9.36;60.32;101072.72;5282671;28;20040;-75
2024/03/08 10:26:31;;;;;;;15.93;14.02;;;;;;;9.51;59.74;101068.94;5285275;28;20039;-76
2024/03/08 10:29:03;;;;;;;22.75;13.85;;;;;;;9.58;58.79;101064.03;5281063;28;20798;-75
2024/03/08 10:31:39;;;;;;;18.13;13.65;;;;;;;9.77;58.75;101063.44;5283392;28;20024;-75
2024/03/08 10:34:11;;;;;;;20.02;14.32;;;;;;;9.79;59.53;101051.94;5283337;28;20032;-76
2024/03/08 10:36:44;;;;;;;16.33;13.95;;;;;;;9.84;58.66;101046.31;5283474;28;20036;-78
2024/03/08 10:39:32;;;;;;;17.80;13.52;;;;;;;10.14;59.02;101033.41;5284443;28;20024;-76
2024/03/08 10:42:05;;;;;;;20.02;14.85;;;;;;;10.02;57.04;101034.41;5275332;28;20063;-79
2024/03/08 10:44:50;;;;;;;15.60;13.80;;;;;;;10.21;58.18;101034.59;5281161;28;20039;-76
2024/03/08 10:47:29;;;;;;;18.08;13.70;;;;;;;10.13;57.40;101036.19;5282064;28;20469;-75
2024/03/08 10:50:13;;;;;;;16.67;13.93;;;;;;;10.14;56.82;101022.13;5279332;28;20028;-76
2024/03/08 10:52:45;;;;;;;16.85;12.88;;;;;;;10.06;55.41;101011.44;5264056;28;20477;-78
2024/03/08 10:55:21;;;;;;;20.35;14.25;;;;;;;10.37;58.99;101013.28;5285026;28;20039;-75
2024/03/08 10:57:54;;;;;;;16.15;13.82;;;;;;;10.55;56.62;101007.50;5281090;28;20039;-75
2024/03/08 11:00:26;;;;;;;15.27;13.05;;;;;;;10.64;54.82;101004.09;5277812;28;20024;-77
2024/03/08 11:03:00;;;;;;;16.83;13.63;;;;;;;10.84;54.58;100999.84;5282018;28;20055;-75
2024/03/08 11:05:41;;;;;;;15.52;13.50;;;;;;;10.82;54.50;100980.78;5279269;28;20512;-75
2024/03/08 11:08:19;;;;;;;20.05;13.23;;;;;;;10.93;54.55;100992.03;5280198;28;20044;-79
2024/03/08 11:10:55;;;;;;;15.05;12.43;;;;;;;11.04;52.26;100990.31;5280024;28;20035;-76
2024/03/08 11:13:42;;;;;;;15.98;13.15;;;;;;;11.36;52.81;100980.53;5281463;28;20043;-76
2024/03/08 11:16:26;;;;;;;17.25;13.32;;;;;;;11.40;52.88;100979.31;5277724;28;20565;-75
2024/03/08 11:19:05;;;;;;;15.27;12.10;;;;;;;11.14;50.60;100980.72;5281248;28;20031;-76
2024/03/08 11:21:40;;;;;;;15.50;13.10;;;;;;;11.18;51.08;100954.09;5282305;28;20954;-75
2024/03/08 11:24:14;;;;;;;15.30;12.18;;;;;;;11.34;51.50;100971.97;5281348;28;20034;-76
2024/03/08 11:26:46;;;;;;;13.80;10.70;;;;;;;11.32;50.61;100950.28;5264240;28;20047;-75
2024/03/08 11:29:27;;;;;;;12.98;10.98;;;;;;;11.66;50.00;100968.34;5284081;28;20030;-76
2024/03/08 11:32:12;;;;;;;12.10;10.32;;;;;;;11.62;47.63;100956.44;5281942;28;20031;-76
2024/03/08 11:34:47;;;;;;;12.90;11.13;;;;;;;11.62;46.55;100948.56;5265531;28;20050;-76
2024/03/08 11:37:21;;;;;;;11.77;9.75;;;;;;;11.47;46.41;100960.41;5270646;28;20029;-76
2024/03/08 11:39:58;;;;;;;11.90;10.35;;;;;;;11.72;47.04;100940.75;5280265;28;20036;-76
2024/03/08 11:42:30;;;;;;;10.82;9.65;;;;;;;11.76;45.96;100944.75;5282912;28;20024;-76
2024/03/08 11:45:08;;;;;;;12.30;10.13;;;;;;;11.99;46.60;100940.13;5279481;28;20033;-76